createdAt,value
2022-10-12T00:02:22.079Z,5.60
2022-10-12T00:04:48.894Z,7.47
2022-10-12T00:07:15.699Z,7.32
2022-10-12T00:09:43.723Z,6.13
2022-10-12T00:12:10.449Z,6.90
2022-10-12T00:14:38.767Z,9.10
2022-10-12T00:17:05.555Z,6.80
2022-10-12T00:19:32.336Z,8.57
2022-10-12T00:21:58.999Z,4.30
2022-10-12T00:24:25.754Z,4.93
2022-10-12T00:26:59.296Z,7.35
2022-10-12T00:29:26.006Z,7.40
2022-10-12T00:31:52.672Z,9.15
2022-10-12T00:34:19.352Z,8.25
2022-10-12T00:36:46.011Z,4.75
2022-10-12T00:39:13.092Z,5.30
2022-10-12T00:41:42.876Z,10.57
2022-10-12T00:44:33.648Z,9.52
2022-10-12T00:47:02.992Z,4.38
2022-10-12T00:49:29.724Z,6.32
2022-10-12T00:52:02.701Z,10.27
2022-10-12T00:54:35.069Z,8.90
2022-10-12T00:57:04.474Z,7.28
2022-10-12T00:59:44.544Z,8.85
2022-10-12T01:02:13.106Z,5.90
2022-10-12T01:04:40.692Z,8.30
2022-10-12T01:07:07.375Z,7.10
2022-10-12T01:09:34.126Z,9.18
2022-10-12T01:12:01.021Z,7.15
2022-10-12T01:14:27.807Z,9.00
2022-10-12T01:17:22.645Z,6.22
2022-10-12T01:20:10.670Z,7.07
2022-10-12T01:22:51.750Z,4.22
2022-10-12T01:25:40.667Z,8.95
2022-10-12T01:28:25.250Z,8.82
2022-10-12T01:31:00.981Z,5.38
2022-10-12T01:33:59.887Z,7.88
2022-10-12T01:36:48.881Z,8.73
2022-10-12T01:39:24.989Z,4.13
2022-10-12T01:41:56.959Z,12.35
2022-10-12T01:44:26.757Z,7.20
2022-10-12T01:46:55.650Z,7.53
2022-10-12T01:49:27.430Z,6.10
2022-10-12T01:51:54.155Z,3.83
2022-10-12T01:54:46.966Z,8.07
2022-10-12T01:57:28.710Z,7.82
2022-10-12T02:00:04.877Z,7.25
2022-10-12T02:02:46.604Z,5.72
2022-10-12T02:05:37.034Z,6.95
2022-10-12T02:08:52.963Z,6.82
2022-10-12T02:11:21.948Z,3.95
2022-10-12T02:13:54.531Z,5.28
2022-10-12T02:16:27.721Z,5.50
2022-10-12T02:18:57.739Z,8.50
2022-10-12T02:21:29.413Z,6.53
2022-10-12T02:24:16.616Z,7.93
2022-10-12T02:26:47.471Z,6.93
2022-10-12T02:29:19.842Z,2.75
2022-10-12T02:31:59.348Z,5.05
2022-10-12T02:34:32.678Z,3.80
2022-10-12T02:37:09.725Z,8.27
2022-10-12T02:39:56.875Z,5.97
2022-10-12T02:42:41.840Z,6.82
2022-10-12T02:45:19.396Z,7.40
2022-10-12T02:47:47.963Z,5.47
2022-10-12T02:50:17.211Z,7.25
2022-10-12T02:52:44.309Z,9.45
2022-10-12T02:55:11.823Z,4.05
2022-10-12T02:57:39.848Z,7.85
2022-10-12T03:00:07.500Z,6.10
2022-10-12T03:02:34.177Z,7.13
2022-10-12T03:05:00.857Z,10.57
2022-10-12T03:07:27.549Z,9.90
2022-10-12T03:09:54.360Z,8.35
2022-10-12T03:12:21.023Z,8.65
2022-10-12T03:14:48.711Z,8.43
2022-10-12T03:17:15.477Z,6.55
2022-10-12T03:19:42.203Z,8.20
2022-10-12T03:22:08.848Z,6.93
2022-10-12T03:24:35.581Z,8.57
2022-10-12T03:27:02.225Z,10.40
2022-10-12T03:29:29.177Z,9.07
2022-10-12T03:31:55.849Z,7.65
2022-10-12T03:34:22.737Z,10.65
2022-10-12T03:36:49.406Z,9.88
2022-10-12T03:39:16.333Z,9.55
2022-10-12T03:41:43.075Z,15.15
2022-10-12T03:44:09.827Z,8.70
2022-10-12T03:46:36.489Z,9.05
2022-10-12T03:49:03.170Z,8.35
2022-10-12T03:51:29.852Z,7.18
2022-10-12T03:53:57.564Z,10.43
2022-10-12T03:56:24.265Z,6.90
2022-10-12T03:58:51.002Z,7.22
2022-10-12T04:01:17.765Z,9.05
2022-10-12T04:03:44.442Z,8.02
2022-10-12T04:06:11.114Z,9.00
2022-10-12T04:08:39.901Z,16.90
2022-10-12T04:11:07.075Z,9.30
2022-10-12T04:13:33.775Z,12.07
2022-10-12T04:16:05.035Z,6.65
2022-10-12T04:18:31.873Z,17.83
2022-10-12T04:20:59.693Z,10.43
2022-10-12T04:23:26.398Z,14.15
2022-10-12T04:25:53.066Z,11.98
2022-10-12T04:28:20.015Z,5.80
2022-10-12T04:30:46.790Z,13.02
2022-10-12T04:33:13.514Z,5.95
2022-10-12T04:35:40.488Z,11.18
2022-10-12T04:38:07.123Z,6.75
2022-10-12T04:40:33.795Z,7.75
2022-10-12T04:43:00.548Z,12.55
2022-10-12T04:45:27.225Z,6.15
2022-10-12T04:47:53.896Z,6.18
2022-10-12T04:50:24.184Z,9.98
2022-10-12T04:52:52.938Z,8.10
2022-10-12T04:55:19.611Z,7.28
2022-10-12T04:57:46.278Z,7.80
2022-10-12T05:00:13.481Z,15.77
2022-10-12T05:02:40.459Z,9.48
2022-10-12T05:05:07.404Z,7.32
2022-10-12T05:07:34.353Z,12.70
2022-10-12T05:10:01.046Z,6.40
2022-10-12T05:12:27.772Z,5.65
2022-10-12T05:14:54.429Z,8.43
2022-10-12T05:17:21.108Z,9.88
2022-10-12T05:19:47.739Z,8.05
2022-10-12T05:22:14.378Z,8.15
2022-10-12T05:24:41.192Z,8.38
2022-10-12T05:27:07.981Z,8.45
2022-10-12T05:29:34.663Z,12.15
2022-10-12T05:32:01.382Z,11.68
2022-10-12T05:34:28.089Z,8.35
2022-10-12T05:36:55.286Z,7.80
2022-10-12T05:39:21.923Z,6.82
2022-10-12T05:41:48.610Z,7.85
2022-10-12T05:44:15.342Z,8.40
2022-10-12T05:46:42.699Z,7.35
2022-10-12T05:49:09.432Z,12.18
2022-10-12T05:51:36.103Z,9.68
2022-10-12T05:54:02.836Z,8.73
2022-10-12T05:56:29.499Z,9.77
2022-10-12T05:58:56.238Z,7.55
2022-10-12T06:01:24.055Z,7.20
2022-10-12T06:03:51.564Z,10.30
2022-10-12T06:06:18.271Z,9.68
2022-10-12T06:08:45.058Z,6.10
2022-10-12T06:11:11.820Z,14.95
2022-10-12T06:13:54.900Z,9.25
2022-10-12T06:16:21.960Z,6.13
2022-10-12T06:18:49.475Z,9.43
2022-10-12T06:24:03.569Z,10.50
2022-10-12T06:26:31.402Z,7.45
2022-10-12T06:29:00.733Z,12.45
2022-10-12T06:31:28.733Z,10.82
2022-10-12T06:33:55.492Z,9.75
2022-10-12T06:36:23.621Z,10.85
2022-10-12T06:38:50.447Z,9.15
2022-10-12T06:41:17.106Z,12.68
2022-10-12T06:43:44.965Z,8.40
2022-10-12T06:46:12.086Z,12.63
2022-10-12T06:48:38.801Z,11.27
2022-10-12T06:51:05.908Z,9.75
2022-10-12T06:53:35.017Z,9.00
2022-10-12T06:56:09.564Z,12.10
2022-10-12T06:58:36.353Z,15.15
2022-10-12T07:01:07.751Z,11.60
2022-10-12T07:03:34.817Z,11.75
2022-10-12T07:06:27.913Z,15.63
2022-10-12T07:08:55.152Z,11.57
2022-10-12T07:11:22.239Z,11.93
2022-10-12T07:13:48.967Z,14.13
2022-10-12T07:16:16.677Z,15.35
2022-10-12T07:18:43.360Z,12.10
2022-10-12T07:21:10.093Z,12.10
2022-10-12T07:23:41.327Z,16.00
2022-10-12T07:26:11.877Z,15.85
2022-10-12T07:28:38.706Z,12.25
2022-10-12T07:31:07.998Z,14.18
2022-10-12T07:33:38.649Z,10.75
2022-10-12T07:36:15.063Z,9.45
2022-10-12T07:41:14.670Z,17.20
2022-10-12T07:43:41.743Z,10.88
2022-10-12T07:46:09.027Z,12.20
2022-10-12T07:48:36.061Z,8.75
2022-10-12T07:51:08.397Z,12.02
2022-10-12T07:53:36.338Z,10.80
2022-10-12T07:56:05.376Z,14.27
2022-10-12T07:58:32.454Z,14.95
2022-10-12T08:01:10.038Z,17.42
2022-10-12T08:04:01.229Z,13.70
2022-10-12T08:06:33.669Z,11.82
2022-10-12T08:09:02.062Z,13.35
2022-10-12T08:11:29.413Z,10.93
2022-10-12T08:13:56.310Z,9.10
2022-10-12T08:16:24.203Z,9.32
2022-10-12T08:18:51.175Z,10.23
2022-10-12T08:21:18.819Z,14.32
2022-10-12T08:23:46.411Z,14.75
2022-10-12T08:26:14.710Z,14.27
2022-10-12T08:28:42.196Z,15.50
2022-10-12T08:31:11.066Z,26.35
2022-10-12T08:33:37.970Z,12.95
2022-10-12T08:36:06.649Z,24.42
2022-10-12T08:38:34.353Z,20.48
2022-10-12T08:41:12.899Z,19.33
2022-10-12T08:43:39.646Z,21.33
2022-10-12T08:46:06.925Z,23.83
2022-10-12T08:48:42.711Z,19.65
2022-10-12T08:51:17.614Z,17.38
2022-10-12T08:53:59.972Z,19.10
2022-10-12T08:56:26.831Z,18.02
2022-10-12T08:58:54.523Z,19.33
2022-10-12T09:01:38.476Z,19.83
2022-10-12T09:04:32.390Z,16.45
2022-10-12T09:07:09.740Z,22.10
2022-10-12T09:09:43.129Z,20.98
2022-10-12T09:12:19.536Z,19.20
2022-10-12T09:14:47.515Z,19.40
2022-10-12T09:17:39.184Z,22.27
2022-10-12T09:20:31.324Z,17.73
2022-10-12T09:23:09.939Z,21.25
2022-10-12T09:25:36.720Z,18.77
2022-10-12T09:28:15.478Z,17.85
2022-10-12T09:30:57.740Z,21.52
2022-10-12T09:33:29.529Z,23.30
2022-10-12T09:35:56.780Z,25.52
2022-10-12T09:38:24.507Z,15.55
2022-10-12T09:40:51.253Z,16.63
2022-10-12T09:43:18.580Z,24.42
2022-10-12T09:45:46.505Z,16.88
2022-10-12T09:48:17.053Z,19.88
2022-10-12T09:53:38.746Z,10.77
2022-10-12T09:56:11.729Z,10.93
2022-10-12T09:59:02.284Z,11.73
2022-10-12T10:01:34.111Z,18.50
2022-10-12T10:04:17.203Z,12.20
2022-10-12T10:06:46.285Z,10.57
2022-10-12T10:09:32.033Z,12.35
2022-10-12T10:12:22.772Z,13.98
2022-10-12T10:14:51.552Z,9.27
2022-10-12T10:17:48.106Z,10.00
2022-10-12T10:20:33.976Z,11.18
2022-10-12T10:23:03.516Z,14.10
2022-10-12T10:25:30.332Z,13.98
2022-10-12T10:28:31.180Z,9.68
2022-10-12T10:31:06.982Z,17.92
2022-10-12T10:33:36.180Z,11.75
2022-10-12T10:36:21.264Z,14.02
2022-10-12T10:39:05.423Z,17.15
2022-10-12T10:41:38.416Z,10.00
2022-10-12T10:44:12.817Z,15.35
2022-10-12T10:46:39.566Z,8.82
2022-10-12T10:49:07.603Z,8.02
2022-10-12T10:51:54.703Z,11.95
2022-10-12T10:54:24.212Z,20.23
2022-10-12T10:56:56.239Z,13.20
2022-10-12T11:00:02.171Z,8.30
2022-10-12T11:02:48.101Z,13.02
2022-10-12T11:05:29.231Z,8.60
2022-10-12T11:07:59.156Z,10.32
2022-10-12T11:10:37.609Z,11.50
2022-10-12T11:13:15.230Z,8.75
2022-10-12T11:15:51.122Z,9.95
2022-10-12T11:18:26.983Z,10.73
2022-10-12T11:20:59.912Z,9.95
2022-10-12T11:23:52.735Z,6.93
2022-10-12T11:26:30.248Z,6.97
2022-10-12T11:29:00.258Z,8.98
2022-10-12T11:31:39.739Z,7.60
2022-10-12T11:34:13.727Z,7.93
2022-10-12T11:37:14.805Z,10.75
2022-10-12T11:39:44.705Z,8.27
2022-10-12T11:42:23.766Z,12.23
2022-10-12T11:44:51.340Z,8.77
2022-10-12T11:47:37.279Z,11.63
2022-10-12T11:50:13.876Z,15.15
2022-10-12T11:52:46.736Z,11.60
2022-10-12T11:55:35.159Z,11.95
2022-10-12T11:58:48.716Z,9.82
2022-10-12T12:01:16.811Z,11.75
2022-10-12T12:03:43.542Z,9.32
2022-10-12T12:06:30.000Z,8.95
2022-10-12T12:08:58.233Z,12.45
2022-10-12T12:11:28.508Z,16.08
2022-10-12T12:14:26.321Z,11.20
2022-10-12T12:17:26.928Z,9.25
2022-10-12T12:20:04.101Z,14.40
2022-10-12T12:22:49.987Z,9.85
2022-10-12T12:25:20.291Z,14.13
2022-10-12T12:27:56.206Z,9.73
2022-10-12T12:30:36.967Z,18.25
2022-10-12T12:33:28.704Z,14.30
2022-10-12T12:36:02.644Z,9.98
2022-10-12T12:38:51.538Z,10.75
2022-10-12T12:41:20.954Z,11.77
2022-10-12T12:43:57.628Z,19.15
2022-10-12T12:46:40.057Z,18.25
2022-10-12T12:49:45.650Z,13.50
2022-10-12T12:52:20.516Z,13.50
2022-10-12T12:55:08.470Z,17.35
2022-10-12T12:57:56.845Z,16.15
2022-10-12T13:00:36.617Z,17.83
2022-10-12T13:03:18.979Z,13.02
2022-10-12T13:06:22.596Z,14.68
2022-10-12T13:09:21.431Z,10.30
2022-10-12T13:12:23.452Z,14.80
2022-10-12T13:15:25.895Z,17.25
2022-10-12T13:18:01.326Z,16.58
2022-10-12T13:20:32.622Z,10.50
2022-10-12T13:23:03.390Z,15.18
2022-10-12T13:25:35.712Z,16.63
2022-10-12T13:28:06.298Z,15.55
2022-10-12T13:30:41.523Z,14.55
2022-10-12T13:33:14.205Z,18.83
2022-10-12T13:35:58.906Z,18.45
2022-10-12T13:38:27.803Z,17.23
2022-10-12T13:41:04.622Z,15.07
2022-10-12T13:43:48.771Z,15.15
2022-10-12T13:46:35.179Z,22.30
2022-10-12T13:49:24.052Z,17.35
2022-10-12T13:52:01.944Z,20.10
2022-10-12T13:54:37.664Z,21.38
2022-10-12T13:57:31.902Z,16.55
2022-10-12T14:00:10.705Z,21.85
2022-10-12T14:02:37.384Z,14.65
2022-10-12T14:05:14.858Z,15.48
2022-10-12T14:07:44.001Z,16.63
2022-10-12T14:10:19.107Z,17.23
2022-10-12T14:12:48.810Z,25.08
2022-10-12T14:15:16.508Z,22.83
2022-10-12T14:17:44.685Z,21.20
2022-10-12T14:20:28.338Z,22.73
2022-10-12T14:22:56.429Z,19.38
2022-10-12T14:25:26.014Z,22.98
2022-10-12T14:27:58.396Z,22.93
2022-10-12T14:30:30.182Z,21.50
2022-10-12T14:33:09.971Z,19.95
2022-10-12T14:35:38.631Z,20.92
2022-10-12T14:38:45.593Z,15.57
2022-10-12T14:41:48.844Z,21.50
2022-10-12T14:44:20.528Z,18.00
2022-10-12T14:47:00.370Z,15.98
2022-10-12T14:49:40.774Z,20.88
2022-10-12T14:52:18.838Z,26.60
2022-10-12T14:54:49.187Z,16.85
2022-10-12T14:57:17.027Z,17.55
2022-10-12T14:59:43.931Z,14.13
2022-10-12T15:02:21.968Z,17.45
2022-10-12T15:04:49.352Z,17.48
2022-10-12T15:07:22.167Z,13.57
2022-10-12T15:09:49.490Z,12.05
2022-10-12T15:12:19.609Z,14.77
2022-10-12T15:14:46.948Z,12.40
2022-10-12T15:17:15.713Z,21.60
2022-10-12T15:19:44.116Z,15.18
2022-10-12T15:22:16.119Z,12.20
2022-10-12T15:24:44.055Z,16.08
2022-10-12T15:27:11.183Z,12.57
2022-10-12T15:29:38.682Z,15.68
2022-10-12T15:32:07.265Z,11.60
2022-10-12T15:34:33.915Z,14.57
2022-10-12T15:37:02.456Z,12.63
2022-10-12T15:39:32.141Z,15.80
2022-10-12T15:41:58.984Z,13.85
2022-10-12T15:44:27.592Z,11.20
2022-10-12T15:46:54.340Z,11.50
2022-10-12T15:49:24.311Z,12.70
2022-10-12T15:51:53.475Z,10.73
2022-10-12T15:54:20.421Z,11.35
2022-10-12T15:56:48.261Z,13.63
2022-10-12T15:59:15.319Z,10.30
2022-10-12T16:01:43.233Z,8.32
2022-10-12T16:04:13.546Z,13.05
2022-10-12T16:06:40.397Z,12.10
2022-10-12T16:09:07.349Z,8.82
2022-10-12T16:11:34.071Z,7.82
2022-10-12T16:14:01.781Z,8.25
2022-10-12T16:16:30.193Z,9.18
2022-10-12T16:18:57.113Z,11.75
2022-10-12T16:21:23.853Z,10.23
2022-10-12T16:23:50.553Z,14.55
2022-10-12T16:26:17.347Z,14.32
2022-10-12T16:28:44.085Z,12.02
2022-10-12T16:31:13.370Z,11.85
2022-10-12T16:33:41.451Z,8.73
2022-10-12T16:36:16.515Z,10.75
2022-10-12T16:38:44.257Z,10.77
2022-10-12T16:41:16.511Z,9.75
2022-10-12T16:43:43.811Z,8.88
2022-10-12T16:46:10.957Z,13.00
2022-10-12T16:48:37.832Z,9.15
2022-10-12T16:51:12.259Z,11.70
2022-10-12T16:53:42.781Z,7.10
2022-10-12T16:58:36.347Z,15.32
2022-10-12T17:01:11.250Z,12.07
2022-10-12T17:03:40.753Z,10.63
2022-10-12T17:06:09.153Z,13.55
2022-10-12T17:08:38.822Z,10.38
2022-10-12T17:11:10.846Z,11.63
2022-10-12T17:13:44.042Z,7.65
2022-10-12T17:16:36.714Z,8.75
2022-10-12T17:19:04.578Z,11.35
2022-10-12T17:21:31.782Z,13.35
2022-10-12T17:23:59.591Z,9.45
2022-10-12T17:26:27.206Z,10.82
2022-10-12T17:28:53.994Z,9.38
2022-10-12T17:31:20.945Z,10.88
2022-10-12T17:33:49.070Z,9.25
2022-10-12T17:36:15.839Z,6.78
2022-10-12T17:38:44.795Z,8.15
2022-10-12T17:41:12.498Z,13.13
2022-10-12T17:43:39.267Z,13.65
2022-10-12T17:46:06.606Z,10.25
2022-10-12T17:48:34.373Z,11.45
2022-10-12T17:51:09.620Z,9.93
2022-10-12T17:53:36.940Z,11.73
2022-10-12T17:56:06.022Z,10.30
2022-10-12T17:58:33.214Z,9.10
2022-10-12T18:01:11.980Z,17.88
2022-10-12T18:03:41.731Z,11.45
2022-10-12T18:06:11.272Z,10.75
2022-10-12T18:08:38.571Z,8.07
2022-10-12T18:11:06.783Z,8.77
2022-10-12T18:13:34.830Z,15.32
2022-10-12T18:16:01.868Z,14.85
2022-10-12T18:18:28.606Z,18.55
2022-10-12T18:20:55.415Z,22.48
2022-10-12T18:23:22.073Z,16.73
2022-10-12T18:25:48.964Z,17.45
2022-10-12T18:28:17.222Z,11.35
2022-10-12T18:30:48.642Z,13.75
2022-10-12T18:33:16.418Z,10.07
2022-10-12T18:35:43.383Z,7.68
2022-10-12T18:38:10.225Z,12.70
2022-10-12T18:40:41.874Z,10.75
2022-10-12T18:43:09.287Z,10.27
2022-10-12T18:45:44.131Z,10.50
2022-10-12T18:48:12.580Z,10.30
2022-10-12T18:50:39.861Z,7.28
2022-10-12T18:53:06.939Z,8.23
2022-10-12T18:55:38.162Z,10.68
2022-10-12T18:58:06.374Z,10.95
2022-10-12T19:00:33.400Z,11.60
2022-10-12T19:03:00.127Z,13.30
2022-10-12T19:05:26.828Z,14.20
2022-10-12T19:07:53.548Z,17.58
2022-10-12T19:10:20.511Z,22.77
2022-10-12T19:12:47.240Z,14.18
2022-10-12T19:15:13.931Z,13.20
2022-10-12T19:17:40.578Z,17.83
2022-10-12T19:20:08.394Z,16.30
2022-10-12T19:22:35.623Z,14.38
2022-10-12T19:25:02.369Z,19.45
2022-10-12T19:27:29.186Z,10.63
2022-10-12T19:29:55.941Z,14.13
2022-10-12T19:32:24.676Z,15.68
2022-10-12T19:35:36.148Z,14.10
2022-10-12T19:38:04.000Z,11.25
2022-10-12T19:40:33.596Z,17.58
2022-10-12T19:43:02.652Z,9.23
2022-10-12T19:45:30.415Z,10.50
2022-10-12T19:47:58.129Z,11.88
2022-10-12T19:50:24.869Z,16.17
2022-10-12T19:52:51.684Z,17.58
2022-10-12T19:55:19.400Z,16.63
2022-10-12T19:57:48.672Z,14.90
2022-10-12T20:00:16.013Z,12.82
2022-10-12T20:02:44.089Z,16.58
2022-10-12T20:05:11.752Z,13.52
2022-10-12T20:07:38.915Z,16.92
2022-10-12T20:10:07.345Z,12.60
2022-10-12T20:12:34.310Z,11.57
2022-10-12T20:15:01.107Z,11.07
2022-10-12T20:17:28.622Z,13.65
2022-10-12T20:19:56.488Z,12.23
2022-10-12T20:22:23.201Z,15.88
2022-10-12T20:24:49.943Z,13.43
2022-10-12T20:27:16.587Z,17.45
2022-10-12T20:29:43.339Z,15.90
2022-10-12T20:32:10.057Z,17.77
2022-10-12T20:34:36.747Z,15.68
2022-10-12T20:37:03.467Z,17.75
2022-10-12T20:39:30.131Z,15.93
2022-10-12T20:41:56.862Z,18.05
2022-10-12T20:44:23.509Z,13.57
2022-10-12T20:46:50.532Z,14.30
2022-10-12T20:49:17.321Z,13.45
2022-10-12T20:51:44.805Z,22.35
2022-10-12T20:54:19.015Z,12.32
2022-10-12T20:56:49.344Z,16.60
2022-10-12T20:59:16.059Z,15.45
2022-10-12T21:01:42.773Z,14.70
2022-10-12T21:04:12.589Z,23.40
2022-10-12T21:06:39.731Z,15.68
2022-10-12T21:09:06.679Z,13.15
2022-10-12T21:11:33.497Z,18.20
2022-10-12T21:14:00.405Z,20.25
2022-10-12T21:16:27.287Z,21.20
2022-10-12T21:18:55.710Z,25.25
2022-10-12T21:21:23.067Z,36.88
2022-10-12T21:23:58.041Z,35.00
2022-10-12T21:26:27.977Z,23.30
2022-10-12T21:29:30.963Z,18.83
2022-10-12T21:31:58.184Z,25.17
2022-10-12T21:34:24.871Z,20.38
2022-10-12T21:36:51.536Z,20.23
2022-10-12T21:39:18.243Z,20.55
2022-10-12T21:41:44.925Z,17.73
2022-10-12T21:44:12.058Z,15.25
2022-10-12T21:46:38.783Z,19.45
2022-10-12T21:49:08.309Z,20.20
2022-10-12T21:51:36.730Z,16.25
2022-10-12T21:54:05.066Z,17.55
2022-10-12T21:56:33.827Z,19.75
2022-10-12T21:59:01.693Z,23.48
2022-10-12T22:01:31.059Z,18.65
2022-10-12T22:04:00.153Z,16.25
2022-10-12T22:06:28.415Z,15.07
2022-10-12T22:09:00.894Z,15.50
2022-10-12T22:11:30.963Z,16.92
2022-10-12T22:14:06.948Z,19.10
2022-10-12T22:16:34.663Z,19.02
2022-10-12T22:19:03.679Z,26.30
2022-10-12T22:21:30.803Z,19.48
2022-10-12T22:23:58.391Z,15.52
2022-10-12T22:26:25.895Z,17.77
2022-10-12T22:28:52.913Z,17.55
2022-10-12T22:31:20.877Z,16.27
2022-10-12T22:33:48.688Z,24.95
2022-10-12T22:36:15.992Z,15.80
2022-10-12T22:38:43.273Z,19.52
2022-10-12T22:41:14.111Z,19.15
2022-10-12T22:43:41.347Z,18.23
2022-10-12T22:46:08.220Z,16.45
2022-10-12T22:48:36.352Z,20.75
2022-10-12T22:51:04.756Z,15.90
2022-10-12T22:53:33.358Z,17.27
2022-10-12T22:56:02.806Z,16.90
2022-10-12T22:58:29.632Z,23.70
2022-10-12T23:01:11.645Z,22.58
2022-10-12T23:03:39.146Z,15.88
2022-10-12T23:06:07.539Z,20.38
2022-10-12T23:08:34.475Z,21.80
2022-10-12T23:11:12.774Z,20.90
2022-10-12T23:13:40.366Z,17.38
2022-10-12T23:16:13.647Z,19.67
2022-10-12T23:18:40.868Z,15.80
2022-10-12T23:21:10.264Z,25.13
2022-10-12T23:23:38.403Z,20.08
2022-10-12T23:26:10.998Z,21.90
2022-10-12T23:28:38.085Z,22.40
2022-10-12T23:31:06.105Z,19.92
2022-10-12T23:33:33.628Z,20.13
2022-10-12T23:36:05.992Z,25.50
2022-10-12T23:38:34.697Z,27.70
2022-10-12T23:41:01.689Z,17.58
2022-10-12T23:43:28.835Z,27.65
2022-10-12T23:45:55.608Z,16.63
2022-10-12T23:48:23.192Z,22.13
2022-10-12T23:50:51.788Z,26.80
2022-10-12T23:53:20.960Z,21.92
2022-10-12T23:55:48.097Z,20.38
2022-10-12T23:58:15.085Z,20.20
